Time;durP1;ratioP1;P1;durP2;ratioP2;P2;SDS_P1;SDS_P2;PMS_P1;PMS_P2;Temp;Humidity;BMP_temperature;BMP_pressure;BME280_temperature;BME280_humidity;BME280_pressure;Samples;Min_cycle;Max_cycle;Signal;HPM_P1;HPM_P2
2023/03/11 00:03:29;;;;;;;5.55;2.97;;;;;;;;;;10370739;28;20044;-59
2023/03/11 00:08:30;;;;;;;4.15;2.80;;;;;;;;;;10371032;28;20041;-59
2023/03/11 00:13:31;;;;;;;5.00;2.70;;;;;;;;;;10370382;28;20026;-59
2023/03/11 00:18:32;;;;;;;4.50;2.80;;;;;;;;;;10370130;28;20030;-59
2023/03/11 00:23:34;;;;;;;4.38;2.40;;;;;;;;;;10370360;28;20041;-59
2023/03/11 00:28:35;;;;;;;4.63;2.65;;;;;;;;;;10369052;28;20038;-59
2023/03/11 00:33:35;;;;;;;5.30;2.88;;;;;;;;;;10369656;28;20025;-59
2023/03/11 00:38:36;;;;;;;4.43;2.65;;;;;;;;;;10369404;28;20150;-59
2023/03/11 00:43:36;;;;;;;3.17;2.72;;;;;;;;;;10369274;28;20108;-60
2023/03/11 00:48:37;;;;;;;5.03;2.80;;;;;;;;;;10369765;28;20030;-59
2023/03/11 00:53:38;;;;;;;4.03;2.58;;;;;;;;;;10369013;28;20056;-59
2023/03/11 00:58:39;;;;;;;2.88;2.45;;;;;;;;;;10369310;28;20436;-60
2023/03/11 01:03:41;;;;;;;3.42;2.30;;;;;;;;;;10368695;28;20057;-60
2023/03/11 01:08:41;;;;;;;7.43;3.20;;;;;;;;;;10368149;28;20100;-59
2023/03/11 01:13:42;;;;;;;3.33;2.25;;;;;;;;;;10368917;28;20030;-58
2023/03/11 01:18:42;;;;;;;3.97;2.60;;;;;;;;;;10368179;28;20470;-58
2023/03/11 01:23:43;;;;;;;6.10;2.80;;;;;;;;;;10367915;28;20026;-59
2023/03/11 01:28:44;;;;;;;4.35;2.42;;;;;;;;;;10368104;28;20040;-58
2023/03/11 01:33:44;;;;;;;3.80;2.30;;;;;;;;;;10368005;28;20026;-58
2023/03/11 01:38:45;;;;;;;3.45;2.63;;;;;;;;;;10376445;28;20088;-58
2023/03/11 01:43:50;;;;;;;4.80;2.10;;;;;;;;;;10380882;28;20061;-59
2023/03/11 01:49:00;;;;;;;4.78;2.80;;;;;;;;;;10381175;28;20026;-59
2023/03/11 01:54:10;;;;;;;4.70;2.50;;;;;;;;;;10380882;28;20321;-59
2023/03/11 01:59:16;;;;;;;2.60;2.05;;;;;;;;;;10380384;28;20500;-59
2023/03/11 02:04:18;;;;;;;4.63;2.20;;;;;;;;;;10379626;28;20022;-59
2023/03/11 02:09:19;;;;;;;4.35;2.13;;;;;;;;;;10381156;28;20033;-60
2023/03/11 02:14:20;;;;;;;4.05;2.38;;;;;;;;;;10381014;28;20105;-59
2023/03/11 02:19:35;;;;;;;2.95;2.40;;;;;;;;;;10380419;28;20136;-59
2023/03/11 02:24:57;;;;;;;3.42;2.30;;;;;;;;;;10380633;28;20421;-59
2023/03/11 02:29:59;;;;;;;5.53;2.78;;;;;;;;;;10380499;28;20104;-59
2023/03/11 02:35:00;;;;;;;4.15;2.40;;;;;;;;;;10379282;28;20030;-59
2023/03/11 02:41:01;;;;;;;3.60;2.58;;;;;;;;;;10379961;28;20112;-58
2023/03/11 02:46:05;;;;;;;3.17;2.60;;;;;;;;;;10293031;28;20058;-59
2023/03/11 02:51:06;;;;;;;2.50;2.22;;;;;;;;;;10287256;28;20364;-58
2023/03/11 02:56:06;;;;;;;2.88;2.10;;;;;;;;;;10286500;28;20038;-59
2023/03/11 03:01:07;;;;;;;2.65;1.92;;;;;;;;;;10286579;28;20038;-59
2023/03/11 03:06:09;;;;;;;5.88;2.15;;;;;;;;;;10286409;28;20062;-59
2023/03/11 03:11:09;;;;;;;4.97;2.38;;;;;;;;;;10286111;28;20097;-58
2023/03/11 03:16:10;;;;;;;4.13;2.40;;;;;;;;;;10292126;28;20555;-58
2023/03/11 03:21:10;;;;;;;3.45;2.53;;;;;;;;;;10373035;28;20026;-58
2023/03/11 03:26:13;;;;;;;3.22;2.47;;;;;;;;;;10372211;28;20025;-58
2023/03/11 03:31:13;;;;;;;2.75;2.10;;;;;;;;;;10372168;28;20461;-58
2023/03/11 03:36:14;;;;;;;4.93;2.53;;;;;;;;;;10372764;28;20034;-58
2023/03/11 03:41:15;;;;;;;3.00;2.22;;;;;;;;;;10371613;28;20521;-58
2023/03/11 03:46:16;;;;;;;4.03;2.65;;;;;;;;;;10371201;28;20276;-58
2023/03/11 03:51:17;;;;;;;3.45;2.33;;;;;;;;;;10371287;28;20064;-59
2023/03/11 03:56:18;;;;;;;2.30;2.05;;;;;;;;;;10370028;28;20041;-58
2023/03/11 04:01:18;;;;;;;5.25;2.20;;;;;;;;;;10370080;28;20030;-59
2023/03/11 04:06:25;;;;;;;5.90;2.50;;;;;;;;;;10370761;28;20026;-58
2023/03/11 04:11:26;;;;;;;2.50;2.30;;;;;;;;;;10370393;28;20494;-59
2023/03/11 04:16:26;;;;;;;3.65;2.30;;;;;;;;;;10370400;28;20080;-58
2023/03/11 04:21:27;;;;;;;2.75;2.20;;;;;;;;;;10370076;28;20033;-58
2023/03/11 04:26:28;;;;;;;3.28;2.00;;;;;;;;;;10370319;28;20032;-58
2023/03/11 04:31:28;;;;;;;2.85;2.20;;;;;;;;;;10370194;28;20417;-58
2023/03/11 04:36:29;;;;;;;2.97;1.98;;;;;;;;;;10369598;28;20029;-58
2023/03/11 04:41:30;;;;;;;2.53;2.22;;;;;;;;;;10369275;28;20041;-58
2023/03/11 04:46:30;;;;;;;3.00;2.17;;;;;;;;;;10369059;28;20050;-58
2023/03/11 04:51:31;;;;;;;2.92;2.25;;;;;;;;;;10369044;28;20048;-59
2023/03/11 04:56:32;;;;;;;2.92;2.38;;;;;;;;;;10368881;28;20041;-59
2023/03/11 05:01:33;;;;;;;7.82;3.00;;;;;;;;;;10368510;28;20557;-58
2023/03/11 05:06:33;;;;;;;2.72;2.15;;;;;;;;;;10368667;28;20022;-58
2023/03/11 05:11:34;;;;;;;3.10;1.98;;;;;;;;;;10368422;28;20030;-59
2023/03/11 05:16:35;;;;;;;2.70;2.30;;;;;;;;;;10368186;28;20030;-58
2023/03/11 05:21:35;;;;;;;4.10;2.17;;;;;;;;;;10368352;28;20026;-58
2023/03/11 05:26:36;;;;;;;2.67;1.90;;;;;;;;;;10368467;28;20033;-58
2023/03/11 05:31:37;;;;;;;2.35;1.85;;;;;;;;;;10367817;28;20092;-58
2023/03/11 05:36:38;;;;;;;2.45;2.10;;;;;;;;;;10367672;28;20589;-58
2023/03/11 05:41:39;;;;;;;3.15;2.10;;;;;;;;;;10367716;28;20249;-59
2023/03/11 05:46:40;;;;;;;2.30;2.10;;;;;;;;;;10367428;28;20046;-59
2023/03/11 05:51:40;;;;;;;2.15;1.92;;;;;;;;;;10367509;28;20042;-59
2023/03/11 05:56:43;;;;;;;2.13;1.90;;;;;;;;;;10367873;28;20034;-59
2023/03/11 06:01:44;;;;;;;4.70;2.08;;;;;;;;;;10367490;28;20112;-59
2023/03/11 06:06:44;;;;;;;3.47;2.42;;;;;;;;;;10367265;28;20336;-60
2023/03/11 06:11:45;;;;;;;2.88;2.05;;;;;;;;;;10366099;28;20381;-59
2023/03/11 06:16:45;;;;;;;2.45;2.10;;;;;;;;;;10366128;28;20053;-59
2023/03/11 06:21:46;;;;;;;4.18;1.73;;;;;;;;;;10365487;28;20034;-58
2023/03/11 06:26:51;;;;;;;4.05;2.38;;;;;;;;;;10373804;28;20026;-59
2023/03/11 06:31:52;;;;;;;1.90;1.80;;;;;;;;;;10375018;28;20029;-58
2023/03/11 06:36:53;;;;;;;10.32;3.03;;;;;;;;;;10374260;28;20390;-52
2023/03/11 06:41:54;;;;;;;4.70;2.63;;;;;;;;;;10374492;28;20030;-56
2023/03/11 06:46:54;;;;;;;9.32;2.95;;;;;;;;;;10373761;28;20042;-58
2023/03/11 06:51:55;;;;;;;16.17;2.83;;;;;;;;;;10373811;28;20421;-58
2023/03/11 06:56:55;;;;;;;5.57;2.75;;;;;;;;;;10373395;28;20397;-58
2023/03/11 07:01:57;;;;;;;4.97;2.95;;;;;;;;;;10372442;28;20448;-58
2023/03/11 07:06:58;;;;;;;8.93;2.97;;;;;;;;;;10373230;28;20030;-59
2023/03/11 07:11:59;;;;;;;6.20;2.85;;;;;;;;;;10371309;28;20032;-58
2023/03/11 07:16:59;;;;;;;6.40;3.08;;;;;;;;;;10371621;28;20034;-58
2023/03/11 07:22:00;;;;;;;10.05;3.50;;;;;;;;;;10372065;28;20451;-58
2023/03/11 07:27:01;;;;;;;8.93;3.63;;;;;;;;;;10371871;28;20413;-58
2023/03/11 07:32:01;;;;;;;9.50;3.50;;;;;;;;;;10371923;28;20041;-58
2023/03/11 07:37:02;;;;;;;17.13;3.75;;;;;;;;;;10369913;28;20026;-58
2023/03/11 07:42:04;;;;;;;6.57;3.83;;;;;;;;;;10371721;28;20373;-58
2023/03/11 07:47:05;;;;;;;8.05;3.17;;;;;;;;;;10371345;28;20037;-58
2023/03/11 07:52:05;;;;;;;13.18;4.28;;;;;;;;;;10372019;28;20037;-58
2023/03/11 07:57:08;;;;;;;28.40;5.15;;;;;;;;;;10371500;28;20026;-58
2023/03/11 08:02:09;;;;;;;27.67;6.93;;;;;;;;;;10371269;28;20371;-58
2023/03/11 08:07:10;;;;;;;16.13;5.82;;;;;;;;;;10370994;28;20038;-58
2023/03/11 08:12:10;;;;;;;19.17;6.57;;;;;;;;;;10370544;28;20103;-58
2023/03/11 08:17:11;;;;;;;20.88;6.95;;;;;;;;;;10370538;28;20036;-58
2023/03/11 08:22:11;;;;;;;12.52;6.70;;;;;;;;;;10370292;28;20492;-57
2023/03/11 08:27:12;;;;;;;16.45;7.60;;;;;;;;;;10369829;28;20389;-58
2023/03/11 08:32:12;;;;;;;17.92;7.90;;;;;;;;;;10370414;28;20021;-57
2023/03/11 08:37:14;;;;;;;35.92;7.88;;;;;;;;;;10369590;28;20030;-57
2023/03/11 08:42:16;;;;;;;32.80;8.35;;;;;;;;;;10370165;28;20030;-58
2023/03/11 08:47:17;;;;;;;26.77;8.90;;;;;;;;;;10368776;28;20056;-58
2023/03/11 08:52:17;;;;;;;49.83;7.72;;;;;;;;;;10369972;28;20026;-58
2023/03/11 08:57:18;;;;;;;23.58;7.10;;;;;;;;;;10369249;28;20041;-58
2023/03/11 09:02:18;;;;;;;28.05;7.35;;;;;;;;;;10369418;28;20037;-58
2023/03/11 09:07:19;;;;;;;21.48;7.15;;;;;;;;;;10368595;28;20021;-58
2023/03/11 09:12:20;;;;;;;24.45;8.02;;;;;;;;;;10368289;28;20370;-58
2023/03/11 09:17:21;;;;;;;39.63;7.50;;;;;;;;;;10368717;28;20089;-58
2023/03/11 09:22:21;;;;;;;26.67;7.00;;;;;;;;;;10368102;28;20032;-58
2023/03/11 09:27:22;;;;;;;23.52;8.02;;;;;;;;;;10367809;28;20045;-58
2023/03/11 09:32:22;;;;;;;26.30;6.43;;;;;;;;;;10367588;28;20060;-58
2023/03/11 09:37:23;;;;;;;22.00;6.20;;;;;;;;;;10367687;28;20053;-59
2023/03/11 09:42:44;;;;;;;17.67;6.30;;;;;;;;;;10368049;28;20304;-59
2023/03/11 09:48:04;;;;;;;20.02;6.35;;;;;;;;;;10366356;28;20053;-59
2023/03/11 09:53:37;;;;;;;27.95;6.00;;;;;;;;;;10367356;28;20501;-58
2023/03/11 09:58:49;;;;;;;17.98;5.93;;;;;;;;;;10370495;28;20087;-58
2023/03/11 10:03:53;;;;;;;17.80;5.82;;;;;;;;;;10374848;28;20037;-59
2023/03/11 10:09:31;;;;;;;15.15;5.25;;;;;;;;;;10375801;28;20041;-59
2023/03/11 10:14:41;;;;;;;21.02;5.50;;;;;;;;;;10375060;28;20026;-59
2023/03/11 10:20:54;;;;;;;19.85;5.32;;;;;;;;;;10375607;28;20161;-59
2023/03/11 10:26:17;;;;;;;15.15;4.95;;;;;;;;;;10370593;28;20041;-58
2023/03/11 10:31:44;;;;;;;23.13;5.65;;;;;;;;;;10374402;28;20092;-59
2023/03/11 10:37:15;;;;;;;15.93;4.90;;;;;;;;;;10374179;28;20497;-59
2023/03/11 10:42:23;;;;;;;13.38;4.93;;;;;;;;;;10373098;28;20497;-59
2023/03/11 10:47:24;;;;;;;15.85;4.65;;;;;;;;;;10373810;28;20045;-59
2023/03/11 10:52:25;;;;;;;20.33;5.10;;;;;;;;;;10374044;28;20068;-59
2023/03/11 10:57:34;;;;;;;10.77;4.35;;;;;;;;;;10373441;28;20041;-58
2023/03/11 11:02:40;;;;;;;14.13;4.38;;;;;;;;;;10373228;28;20466;-58
2023/03/11 11:07:42;;;;;;;14.70;4.75;;;;;;;;;;10372234;28;20034;-59
2023/03/11 11:13:07;;;;;;;8.35;3.95;;;;;;;;;;10370918;28;20026;-58
2023/03/11 11:18:29;;;;;;;10.35;4.05;;;;;;;;;;10372593;28;20037;-58
2023/03/11 11:23:48;;;;;;;12.32;4.25;;;;;;;;;;10371783;28;20094;-59
2023/03/11 11:29:09;;;;;;;9.52;4.35;;;;;;;;;;10371432;28;20030;-59
2023/03/11 11:34:33;;;;;;;11.50;4.80;;;;;;;;;;10371889;28;20029;-58
2023/03/11 11:40:08;;;;;;;12.45;4.68;;;;;;;;;;10371768;28;20054;-59
2023/03/11 11:45:18;;;;;;;10.35;4.82;;;;;;;;;;10370646;28;20052;-59
2023/03/11 11:50:37;;;;;;;9.50;4.03;;;;;;;;;;10371891;28;20108;-59
2023/03/11 11:55:52;;;;;;;8.98;3.92;;;;;;;;;;10370523;28;20053;-59
2023/03/11 12:01:15;;;;;;;15.20;4.28;;;;;;;;;;10370319;28;20030;-58
2023/03/11 12:06:31;;;;;;;10.27;3.75;;;;;;;;;;10370650;28;20211;-59
2023/03/11 12:11:55;;;;;;;8.02;3.85;;;;;;;;;;10369372;28;20030;-59
2023/03/11 12:17:00;;;;;;;10.32;4.28;;;;;;;;;;10369355;28;20033;-59
2023/03/11 12:22:41;;;;;;;8.98;4.53;;;;;;;;;;10367788;28;20497;-59
2023/03/11 12:27:53;;;;;;;7.50;3.72;;;;;;;;;;10370411;28;20041;-59
2023/03/11 12:33:21;;;;;;;7.25;3.53;;;;;;;;;;10369151;28;20034;-59
2023/03/11 12:38:34;;;;;;;9.10;4.03;;;;;;;;;;10369109;28;20485;-59
2023/03/11 12:43:34;;;;;;;14.75;4.70;;;;;;;;;;10368009;28;20525;-59
2023/03/11 12:49:00;;;;;;;6.15;3.47;;;;;;;;;;10369816;28;20022;-59
2023/03/11 12:54:36;;;;;;;6.40;3.67;;;;;;;;;;10369544;28;20032;-59
2023/03/11 13:00:09;;;;;;;12.68;4.45;;;;;;;;;;10367801;28;20485;-59
2023/03/11 13:05:58;;;;;;;9.70;4.38;;;;;;;;;;10369193;28;20060;-59
2023/03/11 13:10:59;;;;;;;10.02;4.22;;;;;;;;;;10368548;28;20112;-59
2023/03/11 13:16:11;;;;;;;4.85;3.90;;;;;;;;;;10368681;28;20030;-59
2023/03/11 13:21:30;;;;;;;9.73;5.00;;;;;;;;;;10368248;28;20026;-58
2023/03/11 13:26:42;;;;;;;;;;;;;;;;;;10368763;28;20030;-58
2023/03/11 13:32:15;;;;;;;10.27;3.72;;;;;;;;;;10367754;28;20153;-57
2023/03/11 13:38:03;;;;;;;8.38;3.78;;;;;;;;;;10363240;28;20042;-57
2023/03/11 13:43:10;;;;;;;6.80;3.80;;;;;;;;;;10368402;28;20049;-59
2023/03/11 13:48:39;;;;;;;7.38;3.58;;;;;;;;;;10366484;28;20089;-58
2023/03/11 13:53:50;;;;;;;5.03;3.15;;;;;;;;;;10366637;28;20026;-58
2023/03/11 13:58:50;;;;;;;9.13;3.88;;;;;;;;;;10366536;28;20026;-58
2023/03/11 14:03:51;;;;;;;11.02;4.65;;;;;;;;;;10368008;28;20291;-58
2023/03/11 14:08:55;;;;;;;11.52;4.47;;;;;;;;;;10367449;28;20018;-58
2023/03/11 14:13:55;;;;;;;8.50;4.82;;;;;;;;;;10367522;28;20030;-58
2023/03/11 14:19:14;;;;;;;9.70;4.82;;;;;;;;;;10365295;28;20108;-58
2023/03/11 14:24:27;;;;;;;5.45;4.30;;;;;;;;;;10365822;28;20034;-58
2023/03/11 14:29:38;;;;;;;7.25;4.38;;;;;;;;;;10367127;28;20105;-58
2023/03/11 14:34:40;;;;;;;10.48;4.47;;;;;;;;;;10366209;28;20036;-58
2023/03/11 14:39:44;;;;;;;11.75;4.90;;;;;;;;;;10366019;28;20113;-58
2023/03/11 14:45:07;;;;;;;6.50;4.82;;;;;;;;;;10368235;28;20386;-57
2023/03/11 14:50:20;;;;;;;9.75;4.68;;;;;;;;;;10372081;28;20026;-58
2023/03/11 14:55:39;;;;;;;11.68;5.07;;;;;;;;;;10373615;28;20038;-58
2023/03/11 15:00:49;;;;;;;9.75;5.28;;;;;;;;;;10373141;28;20056;-58
2023/03/11 15:06:05;;;;;;;8.85;4.72;;;;;;;;;;10372292;28;20121;-57
2023/03/11 15:11:20;;;;;;;9.02;4.70;;;;;;;;;;10373236;28;20485;-57
2023/03/11 15:16:32;;;;;;;10.80;4.70;;;;;;;;;;10372996;28;20034;-58
2023/03/11 15:21:33;;;;;;;7.97;4.68;;;;;;;;;;10372884;28;20113;-58
2023/03/11 15:26:37;;;;;;;8.70;4.40;;;;;;;;;;10372539;28;20389;-58
2023/03/11 15:31:39;;;;;;;7.90;4.43;;;;;;;;;;10372682;28;20022;-58
2023/03/11 15:36:46;;;;;;;12.30;5.22;;;;;;;;;;10372602;28;20107;-57
2023/03/11 15:42:17;;;;;;;8.82;5.30;;;;;;;;;;10371939;28;20065;-58
2023/03/11 15:47:22;;;;;;;8.63;5.03;;;;;;;;;;10370536;28;20038;-58
2023/03/11 15:52:22;;;;;;;7.97;4.40;;;;;;;;;;10371576;28;20026;-58
2023/03/11 15:57:27;;;;;;;9.07;5.03;;;;;;;;;;10371587;28;20409;-58
2023/03/11 16:02:30;;;;;;;7.32;4.32;;;;;;;;;;10370412;28;20025;-58
2023/03/11 16:07:31;;;;;;;10.45;4.13;;;;;;;;;;10371174;28;20032;-58
2023/03/11 16:12:31;;;;;;;9.75;4.25;;;;;;;;;;10370704;28;20033;-58
2023/03/11 16:17:32;;;;;;;5.18;3.45;;;;;;;;;;10370298;28;20296;-58
2023/03/11 16:22:35;;;;;;;8.55;4.45;;;;;;;;;;10370017;28;20056;-58
2023/03/11 16:27:36;;;;;;;7.53;4.20;;;;;;;;;;10368589;28;20025;-58
2023/03/11 16:32:36;;;;;;;7.63;4.18;;;;;;;;;;10370440;28;20033;-58
2023/03/11 16:37:40;;;;;;;14.10;4.22;;;;;;;;;;10369917;28;20029;-58
2023/03/11 16:42:42;;;;;;;8.25;4.47;;;;;;;;;;10370638;28;20034;-58
2023/03/11 16:47:43;;;;;;;7.82;4.05;;;;;;;;;;10368929;28;20056;-58
2023/03/11 16:52:43;;;;;;;8.23;4.60;;;;;;;;;;10369704;28;20358;-58
2023/03/11 16:57:44;;;;;;;9.05;4.35;;;;;;;;;;10369473;28;20113;-59
2023/03/11 17:02:45;;;;;;;9.18;4.20;;;;;;;;;;10369898;28;20030;-58
2023/03/11 17:07:45;;;;;;;8.82;4.28;;;;;;;;;;10368655;28;20026;-58
2023/03/11 17:12:46;;;;;;;7.63;4.60;;;;;;;;;;10368595;28;20045;-58
2023/03/11 17:17:46;;;;;;;12.50;4.40;;;;;;;;;;10369026;28;20107;-58
2023/03/11 17:22:47;;;;;;;9.68;4.20;;;;;;;;;;10368085;28;20026;-59
2023/03/11 17:27:48;;;;;;;9.55;4.13;;;;;;;;;;10367962;28;20084;-58
2023/03/11 17:32:49;;;;;;;11.65;4.75;;;;;;;;;;10367823;28;20034;-57
2023/03/11 17:37:49;;;;;;;9.60;4.47;;;;;;;;;;10368545;28;20033;-58
2023/03/11 17:42:50;;;;;;;12.13;5.05;;;;;;;;;;10367731;28;20029;-59
2023/03/11 17:47:50;;;;;;;8.43;5.07;;;;;;;;;;10367255;28;20050;-58
2023/03/11 17:52:52;;;;;;;13.82;5.60;;;;;;;;;;10366369;28;20030;-59
2023/03/11 17:57:52;;;;;;;13.60;6.53;;;;;;;;;;10368097;28;20037;-58
2023/03/11 18:02:53;;;;;;;9.05;5.90;;;;;;;;;;10367937;28;20025;-59
2023/03/11 18:07:54;;;;;;;11.80;5.57;;;;;;;;;;10367482;28;20026;-59
2023/03/11 18:12:54;;;;;;;9.75;6.15;;;;;;;;;;10367733;28;20045;-59
2023/03/11 18:17:55;;;;;;;12.00;6.03;;;;;;;;;;10367195;28;20391;-59
2023/03/11 18:22:56;;;;;;;10.85;5.75;;;;;;;;;;10374098;28;20099;-58
2023/03/11 18:27:57;;;;;;;12.93;6.15;;;;;;;;;;10373886;28;20091;-58
2023/03/11 18:32:57;;;;;;;9.10;5.60;;;;;;;;;;10374196;28;20058;-58
2023/03/11 18:37:58;;;;;;;26.48;7.55;;;;;;;;;;10374577;28;20036;-59
2023/03/11 18:43:18;;;;;;;32.40;7.72;;;;;;;;;;10372386;28;20504;-59
2023/03/11 18:48:19;;;;;;;26.70;7.18;;;;;;;;;;10246696;29;20048;-59
2023/03/11 18:53:23;;;;;;;30.38;6.75;;;;;;;;;;10246886;29;20051;-59
2023/03/11 18:58:23;;;;;;;24.05;6.15;;;;;;;;;;10246912;29;20043;-59
2023/03/11 19:03:24;;;;;;;16.15;6.13;;;;;;;;;;10246573;29;20082;-58
2023/03/11 19:08:27;;;;;;;24.05;6.65;;;;;;;;;;10246845;29;20038;-59
2023/03/11 19:13:28;;;;;;;16.55;6.85;;;;;;;;;;10246150;29;20035;-59
2023/03/11 19:18:29;;;;;;;16.15;5.63;;;;;;;;;;10245811;29;20043;-58
2023/03/11 19:23:30;;;;;;;20.20;6.53;;;;;;;;;;10292695;28;20456;-58
2023/03/11 19:28:31;;;;;;;14.48;5.55;;;;;;;;;;10372958;28;20084;-58
2023/03/11 19:33:31;;;;;;;14.60;6.03;;;;;;;;;;10372099;28;20436;-58
2023/03/11 19:38:32;;;;;;;28.08;5.32;;;;;;;;;;10372781;28;20052;-58
2023/03/11 19:43:34;;;;;;;17.20;5.88;;;;;;;;;;10372783;28;20034;-58
2023/03/11 19:48:35;;;;;;;12.20;4.93;;;;;;;;;;10372459;28;20060;-58
2023/03/11 19:53:35;;;;;;;17.85;5.47;;;;;;;;;;10371696;28;20026;-58
2023/03/11 19:58:36;;;;;;;14.82;5.13;;;;;;;;;;10371507;28;20056;-58
2023/03/11 20:03:37;;;;;;;11.88;5.40;;;;;;;;;;10371696;28;20037;-58
2023/03/11 20:08:37;;;;;;;12.07;4.90;;;;;;;;;;10371240;28;20033;-58
2023/03/11 20:13:41;;;;;;;14.48;4.78;;;;;;;;;;10370352;28;20045;-58
2023/03/11 20:18:42;;;;;;;11.48;4.43;;;;;;;;;;10370457;28;20038;-58
2023/03/11 20:23:42;;;;;;;12.63;4.82;;;;;;;;;;10370080;28;20034;-58
2023/03/11 20:28:43;;;;;;;11.63;4.45;;;;;;;;;;10369897;28;20037;-58
2023/03/11 20:33:44;;;;;;;12.40;4.10;;;;;;;;;;10370556;28;20037;-58
2023/03/11 20:38:46;;;;;;;11.02;4.55;;;;;;;;;;10370210;28;20079;-58
2023/03/11 20:43:47;;;;;;;11.23;4.40;;;;;;;;;;10368658;28;20572;-58
2023/03/11 20:48:49;;;;;;;15.98;4.82;;;;;;;;;;10369405;28;20409;-58
2023/03/11 20:53:51;;;;;;;8.60;4.13;;;;;;;;;;10369496;28;20040;-57
2023/03/11 20:58:54;;;;;;;25.30;6.10;;;;;;;;;;10369452;28;20081;-57
2023/03/11 21:03:59;;;;;;;28.98;6.90;;;;;;;;;;10369348;28;20095;-57
2023/03/11 21:09:06;;;;;;;21.35;5.82;;;;;;;;;;10369471;28;20026;-58
2023/03/11 21:14:07;;;;;;;37.55;6.10;;;;;;;;;;10369698;28;20029;-57
2023/03/11 21:19:08;;;;;;;19.05;5.05;;;;;;;;;;10368876;28;20034;-57
2023/03/11 21:24:10;;;;;;;21.67;5.15;;;;;;;;;;10368416;28;20466;-58
2023/03/11 21:29:10;;;;;;;17.27;4.75;;;;;;;;;;10365483;28;20432;-58
2023/03/11 21:34:11;;;;;;;14.00;5.10;;;;;;;;;;10366221;28;20030;-57
2023/03/11 21:39:13;;;;;;;18.40;5.25;;;;;;;;;;10368818;28;20037;-57
2023/03/11 21:44:14;;;;;;;13.85;5.03;;;;;;;;;;10367988;28;20099;-58
2023/03/11 21:49:14;;;;;;;24.98;4.78;;;;;;;;;;10368269;28;20532;-58
2023/03/11 21:54:15;;;;;;;20.15;5.32;;;;;;;;;;10370440;28;20025;-58
2023/03/11 21:59:15;;;;;;;13.75;4.93;;;;;;;;;;10376002;28;20033;-58
2023/03/11 22:04:16;;;;;;;14.30;5.22;;;;;;;;;;10376414;28;20038;-58
2023/03/11 22:09:16;;;;;;;11.05;4.40;;;;;;;;;;10376355;28;20473;-58
2023/03/11 22:14:17;;;;;;;12.23;4.68;;;;;;;;;;10375978;28;20021;-58
2023/03/11 22:19:18;;;;;;;11.93;4.15;;;;;;;;;;10375680;28;20026;-58
2023/03/11 22:24:18;;;;;;;11.40;4.18;;;;;;;;;;10375531;28;20029;-58
2023/03/11 22:29:19;;;;;;;10.23;4.30;;;;;;;;;;10374296;28;20129;-58
2023/03/11 22:34:19;;;;;;;11.65;3.95;;;;;;;;;;10373912;28;20026;-58
2023/03/11 22:39:20;;;;;;;8.63;4.28;;;;;;;;;;10374764;28;20022;-58
2023/03/11 22:44:21;;;;;;;13.07;4.38;;;;;;;;;;10373595;28;20050;-57
2023/03/11 22:49:21;;;;;;;9.20;4.30;;;;;;;;;;10374111;28;20080;-58
2023/03/11 22:54:23;;;;;;;14.10;4.35;;;;;;;;;;10373867;28;20030;-57
2023/03/11 22:59:25;;;;;;;10.27;4.07;;;;;;;;;;10374677;28;20030;-58
2023/03/11 23:04:26;;;;;;;11.13;3.58;;;;;;;;;;10373188;28;20362;-57
2023/03/11 23:09:27;;;;;;;12.02;4.03;;;;;;;;;;10373551;28;20030;-57
2023/03/11 23:14:27;;;;;;;13.02;4.22;;;;;;;;;;10373584;28;20033;-57
2023/03/11 23:19:28;;;;;;;15.50;3.83;;;;;;;;;;10372930;28;20497;-58
2023/03/11 23:24:29;;;;;;;9.73;4.13;;;;;;;;;;10373168;28;20478;-58
2023/03/11 23:29:31;;;;;;;14.27;3.80;;;;;;;;;;10372992;28;20026;-58
2023/03/11 23:34:31;;;;;;;12.13;4.35;;;;;;;;;;10372268;28;20034;-58
2023/03/11 23:39:32;;;;;;;8.55;3.90;;;;;;;;;;10372148;28;20033;-58
2023/03/11 23:44:32;;;;;;;8.55;3.78;;;;;;;;;;10371887;28;20055;-58
2023/03/11 23:49:33;;;;;;;4.78;3.22;;;;;;;;;;10372075;28;20032;-60
2023/03/11 23:54:34;;;;;;;7.70;3.92;;;;;;;;;;10371509;28;20084;-58
2023/03/11 23:59:35;;;;;;;10.25;3.88;;;;;;;;;;10371259;28;20038;-57
